createdAt,value
2019-02-02T00:02:19.517Z,1.61
2019-02-02T00:04:49.305Z,1.63
2019-02-02T00:07:19.099Z,1.64
2019-02-02T00:09:48.910Z,1.66
2019-02-02T00:12:18.614Z,1.64
2019-02-02T00:14:48.394Z,1.67
2019-02-02T00:17:18.400Z,1.65
2019-02-02T00:19:48.110Z,1.64
2019-02-02T00:22:17.869Z,1.67
2019-02-02T00:24:47.519Z,1.67
2019-02-02T00:27:17.212Z,1.66
2019-02-02T00:29:46.890Z,1.73
2019-02-02T00:32:16.543Z,1.71
2019-02-02T00:34:46.451Z,1.74
2019-02-02T00:37:16.094Z,1.75
2019-02-02T00:39:53.550Z,1.72
2019-02-02T00:42:23.506Z,1.70
2019-02-02T00:44:53.327Z,1.73
2019-02-02T00:47:23.147Z,1.70
2019-02-02T00:49:52.868Z,1.72
2019-02-02T00:52:22.689Z,1.72
2019-02-02T00:54:52.347Z,1.71
2019-02-02T00:57:22.268Z,1.72
2019-02-02T00:59:51.962Z,1.70
2019-02-02T01:02:21.683Z,1.73
2019-02-02T01:04:51.570Z,1.72
2019-02-02T01:07:21.292Z,1.71
2019-02-02T01:09:51.021Z,1.73
2019-02-02T01:12:20.830Z,1.71
2019-02-02T01:14:50.806Z,1.64
2019-02-02T01:17:20.374Z,1.65
2019-02-02T01:19:49.998Z,1.64
2019-02-02T01:22:19.592Z,1.68
2019-02-02T01:24:50.539Z,1.70
2019-02-02T01:27:20.162Z,1.70
2019-02-02T01:29:49.970Z,1.73
2019-02-02T01:32:19.872Z,1.73
2019-02-02T01:34:49.522Z,1.72
2019-02-02T01:37:19.385Z,1.71
2019-02-02T01:39:49.019Z,1.77
2019-02-02T01:42:18.809Z,1.74
2019-02-02T01:44:48.970Z,1.75
2019-02-02T01:47:18.605Z,1.71
2019-02-02T01:49:48.276Z,1.73
2019-02-02T01:52:17.984Z,1.72
2019-02-02T01:54:47.620Z,1.76
2019-02-02T01:57:17.432Z,0.84
2019-02-02T01:59:47.095Z,1.73
2019-02-02T02:02:16.786Z,1.69
2019-02-02T02:04:46.412Z,1.72
2019-02-02T02:07:16.328Z,1.75
2019-02-02T02:09:46.126Z,1.74
2019-02-02T02:12:16.133Z,1.75
2019-02-02T02:14:46.872Z,1.80
2019-02-02T02:17:16.524Z,1.75
2019-02-02T02:19:46.273Z,1.78
2019-02-02T02:22:16.039Z,1.81
2019-02-02T02:24:45.736Z,1.84
2019-02-02T02:27:15.437Z,1.85
2019-02-02T02:29:45.127Z,1.80
2019-02-02T02:32:14.943Z,1.82
2019-02-02T02:34:44.593Z,1.84
2019-02-02T02:37:14.161Z,1.84
2019-02-02T02:39:43.911Z,1.81
2019-02-02T02:42:13.658Z,1.85
2019-02-02T02:44:43.457Z,1.87
2019-02-02T02:47:13.512Z,1.81
2019-02-02T02:49:43.235Z,1.85
2019-02-02T02:52:13.079Z,1.86
2019-02-02T02:54:42.730Z,1.85
2019-02-02T02:57:12.843Z,1.85
2019-02-02T02:59:42.403Z,1.86
2019-02-02T03:02:12.318Z,1.87
2019-02-02T03:04:42.119Z,1.86
2019-02-02T03:07:11.917Z,1.83
2019-02-02T03:09:41.492Z,1.95
2019-02-02T03:12:11.437Z,1.98
2019-02-02T03:14:41.204Z,2.03
2019-02-02T03:17:11.030Z,2.02
2019-02-02T03:19:40.869Z,1.97
2019-02-02T03:22:10.787Z,1.90
2019-02-02T03:24:40.367Z,1.85
2019-02-02T03:27:10.236Z,1.89
2019-02-02T03:29:40.181Z,1.92
2019-02-02T03:32:10.007Z,1.89
2019-02-02T03:34:39.939Z,1.90
2019-02-02T03:37:09.580Z,1.92
2019-02-02T03:39:39.346Z,1.96
2019-02-02T03:42:09.024Z,2.01
2019-02-02T03:44:38.691Z,1.99
2019-02-02T03:47:08.346Z,2.08
2019-02-02T03:49:38.287Z,2.09
2019-02-02T03:52:08.324Z,2.05
2019-02-02T03:54:37.968Z,2.02
2019-02-02T03:57:07.595Z,2.08
2019-02-02T03:59:37.279Z,2.05
2019-02-02T04:02:06.911Z,2.02
2019-02-02T04:04:36.709Z,2.05
2019-02-02T04:07:06.388Z,2.04
2019-02-02T04:09:36.112Z,2.02
2019-02-02T04:12:05.792Z,2.03
2019-02-02T04:14:35.620Z,2.07
2019-02-02T04:17:05.292Z,2.04
2019-02-02T04:19:34.987Z,2.02
2019-02-02T04:22:04.623Z,1.98
2019-02-02T04:24:34.233Z,2.02
2019-02-02T04:27:03.823Z,2.06
2019-02-02T04:29:33.455Z,2.11
2019-02-02T04:32:03.149Z,2.10
2019-02-02T04:34:32.699Z,2.05
2019-02-02T04:37:02.289Z,2.09
2019-02-02T04:39:31.981Z,2.15
2019-02-02T04:42:01.604Z,2.18
2019-02-02T04:44:31.142Z,2.12
2019-02-02T04:47:00.739Z,1.18
2019-02-02T04:49:30.353Z,2.09
2019-02-02T04:52:00.160Z,2.04
2019-02-02T04:54:29.819Z,2.02
2019-02-02T04:56:59.404Z,2.03
2019-02-02T04:59:29.713Z,2.06
2019-02-02T05:01:59.272Z,2.07
2019-02-02T05:04:28.891Z,2.06
2019-02-02T05:06:58.632Z,2.06
2019-02-02T05:09:28.245Z,2.05
2019-02-02T05:11:57.923Z,2.11
2019-02-02T05:14:27.875Z,2.15
2019-02-02T05:16:57.519Z,2.17
2019-02-02T05:19:27.324Z,2.17
2019-02-02T05:21:57.031Z,2.09
2019-02-02T05:24:26.634Z,2.09
2019-02-02T05:26:56.554Z,2.08
2019-02-02T05:29:26.203Z,2.07
2019-02-02T05:31:55.745Z,2.03
2019-02-02T05:34:25.632Z,2.01
2019-02-02T05:36:55.320Z,2.04
2019-02-02T05:39:25.132Z,2.05
2019-02-02T05:41:54.854Z,2.04
2019-02-02T05:44:24.941Z,2.07
2019-02-02T05:46:54.639Z,2.05
2019-02-02T05:49:24.199Z,2.04
2019-02-02T05:51:54.121Z,2.04
2019-02-02T05:54:23.762Z,2.06
2019-02-02T05:56:53.631Z,2.09
2019-02-02T05:59:23.385Z,2.07
2019-02-02T06:01:53.055Z,2.05
2019-02-02T06:04:22.806Z,2.04
2019-02-02T06:06:52.404Z,2.03
2019-02-02T06:09:22.907Z,2.03
2019-02-02T06:11:52.698Z,2.03
2019-02-02T06:14:22.423Z,2.02
2019-02-02T06:16:52.143Z,2.02
2019-02-02T06:19:21.738Z,1.99
2019-02-02T06:21:51.450Z,2.00
2019-02-02T06:24:21.134Z,2.04
2019-02-02T06:26:50.774Z,2.06
2019-02-02T06:29:20.380Z,2.05
2019-02-02T06:31:50.051Z,2.06
2019-02-02T06:34:19.565Z,2.07
2019-02-02T06:36:50.450Z,2.08
2019-02-02T06:39:20.008Z,2.07
2019-02-02T06:41:49.807Z,2.05
2019-02-02T06:44:19.468Z,2.04
2019-02-02T06:46:49.108Z,2.03
2019-02-02T06:49:19.086Z,2.03
2019-02-02T06:51:48.706Z,2.08
2019-02-02T06:54:18.413Z,2.11
2019-02-02T06:56:48.218Z,2.12
2019-02-02T06:59:17.822Z,2.13
2019-02-02T07:01:47.557Z,2.13
2019-02-02T07:04:17.416Z,2.11
2019-02-02T07:06:47.043Z,2.10
2019-02-02T07:09:16.737Z,2.07
2019-02-02T07:11:46.440Z,2.07
2019-02-02T07:14:16.074Z,2.09
2019-02-02T07:16:45.814Z,2.06
2019-02-02T07:19:15.450Z,2.04
2019-02-02T07:21:45.059Z,2.08
2019-02-02T07:24:14.981Z,2.05
2019-02-02T07:26:44.717Z,2.09
2019-02-02T07:29:14.277Z,2.10
2019-02-02T07:31:43.916Z,2.11
2019-02-02T07:34:13.754Z,2.14
2019-02-02T07:36:43.481Z,2.17
2019-02-02T07:39:13.074Z,2.19
2019-02-02T07:41:42.971Z,2.16
2019-02-02T07:44:12.635Z,2.11
2019-02-02T07:46:42.604Z,2.13
2019-02-02T07:49:12.475Z,2.15
2019-02-02T07:51:42.353Z,2.18
2019-02-02T07:54:13.205Z,2.17
2019-02-02T07:56:42.846Z,2.14
2019-02-02T07:59:12.639Z,2.23
2019-02-02T08:01:42.813Z,2.18
2019-02-02T08:04:12.544Z,2.19
2019-02-02T08:06:42.347Z,1.29
2019-02-02T08:09:12.387Z,2.19
2019-02-02T08:11:42.371Z,2.13
2019-02-02T08:14:12.262Z,2.17
2019-02-02T08:16:42.114Z,2.16
2019-02-02T08:19:12.139Z,2.22
2019-02-02T08:21:42.107Z,2.23
2019-02-02T08:24:12.871Z,2.28
2019-02-02T08:26:42.430Z,2.33
2019-02-02T08:29:12.446Z,2.39
2019-02-02T08:31:42.406Z,2.36
2019-02-02T08:34:12.480Z,2.31
2019-02-02T08:36:42.285Z,2.36
2019-02-02T08:39:12.509Z,2.42
2019-02-02T08:41:42.465Z,2.40
2019-02-02T08:44:12.307Z,2.38
2019-02-02T08:46:42.198Z,2.41
2019-02-02T08:49:13.145Z,2.35
2019-02-02T08:51:42.825Z,2.29
2019-02-02T08:54:12.646Z,2.34
2019-02-02T08:56:42.493Z,2.32
2019-02-02T08:59:12.598Z,2.27
2019-02-02T09:01:42.664Z,2.27
2019-02-02T09:04:13.223Z,2.22
2019-02-02T09:06:42.925Z,1.42
2019-02-02T09:09:13.090Z,2.11
2019-02-02T09:11:42.898Z,2.18
2019-02-02T09:14:12.805Z,2.17
2019-02-02T09:16:42.702Z,2.21
2019-02-02T09:19:12.641Z,1.30
2019-02-02T09:21:42.565Z,2.20
2019-02-02T09:24:12.602Z,2.24
2019-02-02T09:26:42.699Z,2.30
2019-02-02T09:29:12.773Z,2.31
2019-02-02T09:31:42.692Z,2.34
2019-02-02T09:34:12.561Z,2.34
2019-02-02T09:36:42.416Z,2.41
2019-02-02T09:39:12.312Z,2.51
2019-02-02T09:41:42.253Z,2.56
2019-02-02T09:44:12.394Z,2.54
2019-02-02T09:46:42.240Z,2.55
2019-02-02T09:49:12.139Z,2.55
2019-02-02T09:51:42.073Z,2.59
2019-02-02T09:54:11.987Z,2.56
2019-02-02T09:56:41.696Z,2.47
2019-02-02T09:59:11.487Z,2.46
2019-02-02T10:01:41.650Z,2.42
2019-02-02T10:04:11.713Z,2.46
2019-02-02T10:06:41.427Z,2.45
2019-02-02T10:09:11.378Z,2.45
2019-02-02T10:11:41.344Z,2.37
2019-02-02T10:14:11.098Z,2.36
2019-02-02T10:16:41.003Z,2.32
2019-02-02T10:19:11.058Z,2.40
2019-02-02T10:21:40.883Z,2.42
2019-02-02T10:24:10.841Z,2.36
2019-02-02T10:26:40.529Z,2.35
2019-02-02T10:29:10.359Z,2.32
2019-02-02T10:31:40.261Z,2.34
2019-02-02T10:34:12.299Z,1.45
2019-02-02T10:36:41.492Z,2.36
2019-02-02T10:39:11.438Z,2.33
2019-02-02T10:41:41.543Z,2.27
2019-02-02T10:44:11.674Z,2.31
2019-02-02T10:46:41.525Z,2.31
2019-02-02T10:49:11.382Z,2.35
2019-02-02T10:51:41.512Z,2.39
2019-02-02T10:54:11.392Z,2.39
2019-02-02T10:56:41.430Z,2.43
2019-02-02T10:59:11.316Z,2.47
2019-02-02T11:01:50.795Z,2.39
2019-02-02T11:04:12.921Z,2.47
2019-02-02T11:06:42.660Z,2.39
2019-02-02T11:09:12.536Z,2.45
2019-02-02T11:11:42.424Z,2.50
2019-02-02T11:14:12.283Z,2.52
2019-02-02T11:16:42.385Z,2.53
2019-02-02T11:19:12.248Z,2.55
2019-02-02T11:21:42.633Z,2.30
2019-02-02T11:24:12.823Z,2.51
2019-02-02T11:26:42.783Z,2.55
2019-02-02T11:29:13.135Z,2.26
2019-02-02T11:31:42.848Z,2.60
2019-02-02T11:34:12.632Z,2.57
2019-02-02T11:36:43.895Z,2.56
2019-02-02T11:39:13.867Z,2.59
2019-02-02T11:41:44.036Z,2.60
2019-02-02T11:44:13.825Z,2.63
2019-02-02T11:46:43.596Z,2.66
2019-02-02T11:49:13.469Z,2.65
2019-02-02T11:51:43.466Z,2.70
2019-02-02T11:54:13.212Z,2.72
2019-02-02T11:56:43.039Z,2.71
2019-02-02T11:59:12.732Z,2.76
2019-02-02T12:01:42.823Z,1.76
2019-02-02T12:04:12.687Z,2.71
2019-02-02T12:06:42.626Z,2.73
2019-02-02T12:09:12.668Z,2.63
2019-02-02T12:11:42.530Z,2.69
2019-02-02T12:14:12.241Z,2.66
2019-02-02T12:16:42.096Z,2.65
2019-02-02T12:19:11.893Z,2.66
2019-02-02T12:21:41.778Z,2.65
2019-02-02T12:24:15.934Z,2.71
2019-02-02T12:26:43.029Z,2.64
2019-02-02T12:29:12.827Z,1.71
2019-02-02T12:31:42.790Z,2.71
2019-02-02T12:34:12.546Z,2.75
2019-02-02T12:36:42.694Z,2.73
2019-02-02T12:39:13.696Z,2.76
2019-02-02T12:41:43.519Z,2.71
2019-02-02T12:44:13.342Z,2.72
2019-02-02T12:46:43.080Z,2.70
2019-02-02T12:49:12.836Z,2.72
2019-02-02T12:51:42.833Z,2.68
2019-02-02T12:54:12.631Z,1.72
2019-02-02T12:56:42.379Z,2.63
2019-02-02T12:59:12.272Z,2.71
2019-02-02T13:01:42.225Z,2.77
2019-02-02T13:04:12.213Z,2.74
2019-02-02T13:06:42.034Z,2.72
2019-02-02T13:09:12.162Z,2.70
2019-02-02T13:11:43.359Z,2.61
2019-02-02T13:14:13.061Z,2.59
2019-02-02T13:16:42.801Z,2.63
2019-02-02T13:19:14.063Z,2.60
2019-02-02T13:21:44.031Z,2.61
2019-02-02T13:24:13.739Z,2.66
2019-02-02T13:26:43.424Z,2.60
2019-02-02T13:29:13.094Z,2.60
2019-02-02T13:31:42.974Z,2.63
2019-02-02T13:34:12.844Z,2.53
2019-02-02T13:36:42.507Z,2.01
2019-02-02T13:39:13.024Z,2.53
2019-02-02T13:41:42.788Z,2.59
2019-02-02T13:44:12.579Z,2.54
2019-02-02T13:46:42.793Z,2.52
2019-02-02T13:49:15.588Z,2.54
2019-02-02T13:51:45.292Z,2.61
2019-02-02T13:54:14.927Z,2.63
2019-02-02T13:56:45.024Z,2.60
2019-02-02T13:59:14.748Z,2.61
2019-02-02T14:01:45.391Z,2.63
2019-02-02T14:04:15.198Z,2.66
2019-02-02T14:06:44.763Z,2.61
2019-02-02T14:09:14.614Z,2.55
2019-02-02T14:11:44.608Z,2.58
2019-02-02T14:14:14.230Z,2.65
2019-02-02T14:16:44.093Z,2.63
2019-02-02T14:19:13.899Z,2.53
2019-02-02T14:21:43.660Z,2.54
2019-02-02T14:24:13.530Z,2.51
2019-02-02T14:26:43.150Z,2.52
2019-02-02T14:29:12.817Z,2.52
2019-02-02T14:31:43.054Z,2.56
2019-02-02T14:34:12.710Z,2.63
2019-02-02T14:36:42.622Z,2.57
2019-02-02T14:39:12.860Z,2.54
2019-02-02T14:41:42.602Z,2.48
2019-02-02T14:44:12.593Z,2.48
2019-02-02T14:46:42.550Z,2.45
2019-02-02T14:49:12.556Z,2.49
2019-02-02T14:51:42.504Z,2.45
2019-02-02T14:54:12.660Z,2.44
2019-02-02T14:56:47.975Z,2.44
2019-02-02T14:59:14.082Z,2.44
2019-02-02T15:01:44.201Z,2.56
2019-02-02T15:04:13.930Z,2.50
2019-02-02T15:06:43.571Z,2.45
2019-02-02T15:09:13.614Z,2.40
2019-02-02T15:11:43.642Z,2.46
2019-02-02T15:14:13.454Z,2.37
2019-02-02T15:16:43.473Z,2.45
2019-02-02T15:19:13.212Z,2.44
2019-02-02T15:21:42.866Z,2.51
2019-02-02T15:24:12.536Z,2.50
2019-02-02T15:26:42.222Z,2.46
2019-02-02T15:29:12.038Z,2.46
2019-02-02T15:31:41.997Z,2.52
2019-02-02T15:34:11.598Z,2.45
2019-02-02T15:36:41.337Z,2.40
2019-02-02T15:39:11.524Z,2.41
2019-02-02T15:41:52.351Z,2.48
2019-02-02T15:44:12.804Z,2.48
2019-02-02T15:46:49.226Z,2.41
2019-02-02T15:49:14.013Z,2.44
2019-02-02T15:51:43.906Z,2.41
2019-02-02T15:54:13.540Z,2.42
2019-02-02T15:56:43.863Z,2.45
2019-02-02T15:59:13.600Z,2.40
2019-02-02T16:01:43.413Z,2.44
2019-02-02T16:04:13.267Z,2.46
2019-02-02T16:06:43.005Z,2.46
2019-02-02T16:09:12.859Z,2.46
2019-02-02T16:11:43.123Z,2.49
2019-02-02T16:14:12.922Z,2.45
2019-02-02T16:16:48.094Z,2.42
2019-02-02T16:19:17.695Z,2.42
2019-02-02T16:21:47.682Z,2.41
2019-02-02T16:24:17.485Z,2.41
2019-02-02T16:26:48.635Z,2.32
2019-02-02T16:29:18.515Z,2.37
2019-02-02T16:31:48.807Z,2.36
2019-02-02T16:34:18.657Z,2.41
2019-02-02T16:36:50.366Z,2.41
2019-02-02T16:39:20.696Z,2.33
2019-02-02T16:41:50.485Z,2.38
2019-02-02T16:44:20.149Z,2.40
2019-02-02T16:46:49.769Z,2.39
2019-02-02T16:49:19.817Z,2.43
2019-02-02T16:51:49.487Z,2.48
2019-02-02T16:54:19.432Z,2.48
2019-02-02T16:56:51.012Z,2.43
2019-02-02T16:59:20.848Z,2.45
2019-02-02T17:01:50.666Z,2.48
2019-02-02T17:04:20.512Z,2.46
2019-02-02T17:06:50.566Z,2.52
2019-02-02T17:09:20.234Z,2.54
2019-02-02T17:11:53.003Z,2.50
2019-02-02T17:14:23.096Z,2.54
2019-02-02T17:16:53.126Z,2.56
2019-02-02T17:19:23.257Z,2.56
2019-02-02T17:21:52.900Z,2.54
2019-02-02T17:24:22.654Z,2.57
2019-02-02T17:26:52.468Z,2.56
2019-02-02T17:29:22.057Z,2.56
2019-02-02T17:31:52.042Z,2.55
2019-02-02T17:34:27.278Z,2.55
2019-02-02T17:36:54.341Z,2.52
2019-02-02T17:39:24.168Z,2.48
2019-02-02T17:41:53.680Z,2.48
2019-02-02T17:44:25.005Z,2.50
2019-02-02T17:46:54.734Z,2.49
2019-02-02T17:49:24.651Z,2.55
2019-02-02T17:51:54.510Z,2.49
2019-02-02T17:54:24.476Z,2.49
2019-02-02T17:56:54.156Z,2.50
2019-02-02T17:59:24.071Z,2.55
2019-02-02T18:01:53.959Z,2.56
2019-02-02T18:04:26.500Z,2.55
2019-02-02T18:06:55.138Z,2.53
2019-02-02T18:09:25.217Z,2.55
2019-02-02T18:11:54.958Z,2.55
2019-02-02T18:14:24.959Z,2.56
2019-02-02T18:16:57.373Z,2.56
2019-02-02T18:19:26.527Z,2.57
2019-02-02T18:21:56.280Z,2.52
2019-02-02T18:24:29.339Z,2.54
2019-02-02T18:26:58.917Z,2.58
2019-02-02T18:29:28.509Z,2.54
2019-02-02T18:31:58.114Z,2.48
2019-02-02T18:34:27.758Z,2.45
2019-02-02T18:36:57.489Z,2.47
2019-02-02T18:39:27.044Z,2.49
2019-02-02T18:41:56.786Z,2.49
2019-02-02T18:44:29.689Z,2.49
2019-02-02T18:46:59.603Z,2.49
2019-02-02T18:49:29.334Z,2.39
2019-02-02T18:51:59.877Z,2.43
2019-02-02T18:54:30.321Z,2.46
2019-02-02T18:57:00.372Z,2.44
2019-02-02T18:59:30.063Z,2.47
2019-02-02T19:02:00.888Z,2.46
2019-02-02T19:04:30.699Z,2.46
2019-02-02T19:07:00.418Z,2.45
2019-02-02T19:09:30.501Z,2.45
2019-02-02T19:12:00.659Z,2.48
2019-02-02T19:14:30.829Z,2.49
2019-02-02T19:17:01.429Z,2.50
2019-02-02T19:19:31.318Z,2.50
2019-02-02T19:22:02.438Z,2.55
2019-02-02T19:24:34.256Z,2.54
2019-02-02T19:27:04.197Z,2.54
2019-02-02T19:29:39.412Z,2.51
2019-02-02T19:32:11.621Z,2.51
2019-02-02T19:34:44.419Z,2.52
2019-02-02T19:37:14.085Z,2.52
2019-02-02T19:39:47.243Z,2.51
2019-02-02T19:42:17.015Z,2.53
2019-02-02T19:44:46.758Z,2.52
2019-02-02T19:47:16.811Z,2.53
2019-02-02T19:49:46.666Z,2.52
2019-02-02T19:52:16.313Z,2.48
2019-02-02T19:54:46.058Z,2.48
2019-02-02T19:57:15.951Z,2.50
2019-02-02T19:59:45.733Z,2.47
2019-02-02T20:02:15.605Z,2.49
2019-02-02T20:04:45.344Z,2.50
2019-02-02T20:07:14.922Z,2.50
2019-02-02T20:09:44.979Z,2.54
2019-02-02T20:12:14.709Z,2.54
2019-02-02T20:14:44.850Z,2.55
2019-02-02T20:17:14.791Z,2.57
2019-02-02T20:19:44.493Z,2.54
2019-02-02T20:22:14.290Z,2.53
2019-02-02T20:24:44.132Z,2.54
2019-02-02T20:27:14.012Z,2.57
2019-02-02T20:29:43.842Z,2.57
2019-02-02T20:32:13.555Z,2.56
2019-02-02T20:34:43.288Z,2.56
2019-02-02T20:37:12.948Z,2.54
2019-02-02T20:39:42.706Z,2.54
2019-02-02T20:42:12.478Z,2.55
2019-02-02T20:44:44.135Z,1.62
2019-02-02T20:47:14.041Z,2.54
2019-02-02T20:49:43.773Z,2.53
2019-02-02T20:52:15.094Z,2.55
2019-02-02T20:54:44.646Z,2.56
2019-02-02T20:57:14.564Z,2.55
2019-02-02T20:59:44.147Z,2.53
2019-02-02T21:02:13.761Z,2.54
2019-02-02T21:04:43.757Z,2.54
2019-02-02T21:07:13.547Z,2.53
2019-02-02T21:09:43.256Z,2.53
2019-02-02T21:12:12.847Z,2.52
2019-02-02T21:14:42.553Z,2.54
2019-02-02T21:17:12.856Z,2.53
2019-02-02T21:19:42.581Z,2.54
2019-02-02T21:22:12.264Z,2.53
2019-02-02T21:24:42.137Z,2.53
2019-02-02T21:27:12.042Z,2.55
2019-02-02T21:29:42.109Z,2.49
2019-02-02T21:32:11.957Z,2.53
2019-02-02T21:34:41.608Z,2.53
2019-02-02T21:37:11.500Z,2.54
2019-02-02T21:39:41.234Z,2.57
2019-02-02T21:42:11.054Z,2.56
2019-02-02T21:44:43.328Z,2.56
2019-02-02T21:47:12.494Z,2.63
2019-02-02T21:49:42.223Z,2.57
2019-02-02T21:52:12.116Z,2.58
2019-02-02T21:54:42.305Z,2.54
2019-02-02T21:57:12.163Z,2.52
2019-02-02T21:59:42.263Z,2.55
2019-02-02T22:02:12.199Z,2.57
2019-02-02T22:04:42.050Z,2.55
2019-02-02T22:07:11.973Z,2.48
2019-02-02T22:09:44.043Z,2.48
2019-02-02T22:12:13.421Z,2.56
2019-02-02T22:14:43.082Z,2.55
2019-02-02T22:17:12.777Z,2.53
2019-02-02T22:19:42.609Z,2.56
2019-02-02T22:22:12.419Z,2.56
2019-02-02T22:24:42.241Z,2.53
2019-02-02T22:27:12.041Z,2.53
2019-02-02T22:29:41.962Z,2.54
2019-02-02T22:32:11.622Z,2.49
2019-02-02T22:34:41.508Z,2.42
2019-02-02T22:37:11.436Z,2.40
2019-02-02T22:39:41.097Z,2.35
2019-02-02T22:42:10.927Z,2.28
2019-02-02T22:44:40.897Z,2.25
2019-02-02T22:47:10.415Z,2.17
2019-02-02T22:49:40.386Z,2.15
2019-02-02T22:52:10.318Z,2.08
2019-02-02T22:54:39.983Z,2.07
2019-02-02T22:57:10.209Z,2.00
2019-02-02T22:59:40.111Z,1.92
2019-02-02T23:02:15.067Z,1.83
2019-02-02T23:05:03.287Z,1.79
2019-02-02T23:08:22.918Z,1.72
2019-02-02T23:11:32.831Z,1.66
2019-02-02T23:14:46.667Z,1.72
2019-02-02T23:17:16.360Z,1.71
2019-02-02T23:19:46.168Z,1.67
2019-02-02T23:22:16.313Z,1.62
2019-02-02T23:24:45.983Z,1.60
2019-02-02T23:27:15.744Z,1.55
2019-02-02T23:29:45.395Z,1.56
2019-02-02T23:32:15.212Z,1.57
2019-02-02T23:34:44.968Z,1.58
2019-02-02T23:37:14.599Z,1.57
2019-02-02T23:39:44.257Z,1.55
2019-02-02T23:42:13.946Z,1.58
2019-02-02T23:44:43.583Z,1.56
2019-02-02T23:47:13.296Z,1.51
2019-02-02T23:49:43.015Z,1.51
2019-02-02T23:52:12.721Z,1.50
2019-02-02T23:54:42.750Z,1.50
2019-02-02T23:57:12.585Z,1.43
2019-02-02T23:59:42.435Z,1.45
